sensor_id;sensor_type;location;lat;lon;timestamp;P1;durP1;ratioP1;P2;durP2;ratioP2
55672;SDS011;41554;45.366;20.400;2023-04-15T00:01:42;7.18;;;5.78;;
55672;SDS011;41554;45.366;20.400;2023-04-15T00:04:09;11.57;;;5.75;;
55672;SDS011;41554;45.366;20.400;2023-04-15T00:06:36;10.82;;;6.32;;
55672;SDS011;41554;45.366;20.400;2023-04-15T00:09:03;9.90;;;6.60;;
55672;SDS011;41554;45.366;20.400;2023-04-15T00:11:29;8.32;;;5.15;;
55672;SDS011;41554;45.366;20.400;2023-04-15T00:13:55;9.32;;;5.95;;
55672;SDS011;41554;45.366;20.400;2023-04-15T00:16:22;11.38;;;7.95;;
55672;SDS011;41554;45.366;20.400;2023-04-15T00:18:48;11.15;;;6.25;;
55672;SDS011;41554;45.366;20.400;2023-04-15T00:21:15;9.30;;;5.97;;
55672;SDS011;41554;45.366;20.400;2023-04-15T00:23:41;12.98;;;7.93;;
55672;SDS011;41554;45.366;20.400;2023-04-15T00:26:08;7.38;;;6.10;;
55672;SDS011;41554;45.366;20.400;2023-04-15T00:28:34;22.00;;;8.48;;
55672;SDS011;41554;45.366;20.400;2023-04-15T00:31:00;27.63;;;20.20;;
55672;SDS011;41554;45.366;20.400;2023-04-15T00:33:26;31.10;;;20.65;;
55672;SDS011;41554;45.366;20.400;2023-04-15T00:35:52;38.05;;;29.63;;
55672;SDS011;41554;45.366;20.400;2023-04-15T00:38:18;36.65;;;22.60;;
55672;SDS011;41554;45.366;20.400;2023-04-15T00:40:44;28.60;;;16.20;;
55672;SDS011;41554;45.366;20.400;2023-04-15T00:43:10;25.10;;;12.13;;
55672;SDS011;41554;45.366;20.400;2023-04-15T00:45:36;12.32;;;6.55;;
55672;SDS011;41554;45.366;20.400;2023-04-15T00:48:02;7.85;;;5.75;;
55672;SDS011;41554;45.366;20.400;2023-04-15T00:50:29;9.25;;;4.13;;
55672;SDS011;41554;45.366;20.400;2023-04-15T00:52:55;7.43;;;4.22;;
55672;SDS011;41554;45.366;20.400;2023-04-15T00:55:21;10.35;;;5.15;;
55672;SDS011;41554;45.366;20.400;2023-04-15T00:57:47;6.55;;;4.80;;
55672;SDS011;41554;45.366;20.400;2023-04-15T01:00:14;11.35;;;5.65;;
55672;SDS011;41554;45.366;20.400;2023-04-15T01:02:40;7.10;;;5.72;;
55672;SDS011;41554;45.366;20.400;2023-04-15T01:05:06;17.67;;;7.60;;
55672;SDS011;41554;45.366;20.400;2023-04-15T01:07:33;9.88;;;6.10;;
55672;SDS011;41554;45.366;20.400;2023-04-15T01:09:59;6.55;;;5.15;;
55672;SDS011;41554;45.366;20.400;2023-04-15T01:12:26;7.82;;;4.93;;
55672;SDS011;41554;45.366;20.400;2023-04-15T01:14:53;6.15;;;4.35;;
55672;SDS011;41554;45.366;20.400;2023-04-15T01:17:20;9.88;;;5.55;;
55672;SDS011;41554;45.366;20.400;2023-04-15T01:19:46;7.60;;;6.30;;
55672;SDS011;41554;45.366;20.400;2023-04-15T01:22:12;20.40;;;6.63;;
55672;SDS011;41554;45.366;20.400;2023-04-15T01:24:38;7.32;;;4.97;;
55672;SDS011;41554;45.366;20.400;2023-04-15T01:27:05;5.18;;;4.20;;
55672;SDS011;41554;45.366;20.400;2023-04-15T01:29:31;11.00;;;6.50;;
55672;SDS011;41554;45.366;20.400;2023-04-15T01:31:58;6.78;;;5.32;;
55672;SDS011;41554;45.366;20.400;2023-04-15T01:34:24;6.90;;;5.28;;
55672;SDS011;41554;45.366;20.400;2023-04-15T01:36:50;7.55;;;5.30;;
55672;SDS011;41554;45.366;20.400;2023-04-15T01:39:16;7.03;;;5.28;;
55672;SDS011;41554;45.366;20.400;2023-04-15T01:41:43;8.90;;;5.72;;
55672;SDS011;41554;45.366;20.400;2023-04-15T01:44:09;9.23;;;6.45;;
55672;SDS011;41554;45.366;20.400;2023-04-15T01:46:35;7.93;;;4.80;;
55672;SDS011;41554;45.366;20.400;2023-04-15T01:49:01;8.75;;;6.43;;
55672;SDS011;41554;45.366;20.400;2023-04-15T01:51:27;10.38;;;6.25;;
55672;SDS011;41554;45.366;20.400;2023-04-15T01:53:53;5.57;;;4.57;;
55672;SDS011;41554;45.366;20.400;2023-04-15T01:56:21;7.70;;;5.55;;
55672;SDS011;41554;45.366;20.400;2023-04-15T01:58:48;5.90;;;4.28;;
55672;SDS011;41554;45.366;20.400;2023-04-15T02:01:14;7.70;;;5.90;;
55672;SDS011;41554;45.366;20.400;2023-04-15T02:03:43;7.43;;;4.10;;
55672;SDS011;41554;45.366;20.400;2023-04-15T02:06:09;5.53;;;4.43;;
55672;SDS011;41554;45.366;20.400;2023-04-15T02:08:36;7.28;;;4.80;;
55672;SDS011;41554;45.366;20.400;2023-04-15T02:11:02;9.07;;;6.00;;
55672;SDS011;41554;45.366;20.400;2023-04-15T02:13:28;8.20;;;4.95;;
55672;SDS011;41554;45.366;20.400;2023-04-15T02:15:55;5.47;;;4.32;;
55672;SDS011;41554;45.366;20.400;2023-04-15T02:18:21;7.35;;;4.78;;
55672;SDS011;41554;45.366;20.400;2023-04-15T02:20:49;10.07;;;6.18;;
55672;SDS011;41554;45.366;20.400;2023-04-15T02:23:15;8.82;;;6.03;;
55672;SDS011;41554;45.366;20.400;2023-04-15T02:25:41;9.68;;;5.70;;
55672;SDS011;41554;45.366;20.400;2023-04-15T02:28:08;7.15;;;5.22;;
55672;SDS011;41554;45.366;20.400;2023-04-15T02:30:34;9.90;;;6.60;;
55672;SDS011;41554;45.366;20.400;2023-04-15T02:33:00;7.75;;;5.72;;
55672;SDS011;41554;45.366;20.400;2023-04-15T02:35:26;8.50;;;5.40;;
55672;SDS011;41554;45.366;20.400;2023-04-15T02:37:52;5.00;;;4.45;;
55672;SDS011;41554;45.366;20.400;2023-04-15T02:40:18;7.43;;;4.82;;
55672;SDS011;41554;45.366;20.400;2023-04-15T02:42:44;10.30;;;6.22;;
55672;SDS011;41554;45.366;20.400;2023-04-15T02:45:10;5.10;;;4.60;;
55672;SDS011;41554;45.366;20.400;2023-04-15T02:47:37;5.82;;;4.88;;
55672;SDS011;41554;45.366;20.400;2023-04-15T02:50:08;7.70;;;5.00;;
55672;SDS011;41554;45.366;20.400;2023-04-15T02:52:36;13.07;;;4.95;;
55672;SDS011;41554;45.366;20.400;2023-04-15T02:55:02;6.85;;;5.50;;
55672;SDS011;41554;45.366;20.400;2023-04-15T02:57:29;6.25;;;4.25;;
55672;SDS011;41554;45.366;20.400;2023-04-15T02:59:55;9.25;;;5.18;;
55672;SDS011;41554;45.366;20.400;2023-04-15T03:02:21;6.22;;;5.00;;
55672;SDS011;41554;45.366;20.400;2023-04-15T03:04:47;6.22;;;4.43;;
55672;SDS011;41554;45.366;20.400;2023-04-15T03:07:13;8.10;;;6.35;;
55672;SDS011;41554;45.366;20.400;2023-04-15T03:09:40;8.63;;;6.43;;
55672;SDS011;41554;45.366;20.400;2023-04-15T03:12:06;9.65;;;5.82;;
55672;SDS011;41554;45.366;20.400;2023-04-15T03:14:32;8.30;;;6.05;;
55672;SDS011;41554;45.366;20.400;2023-04-15T03:16:58;8.00;;;6.20;;
55672;SDS011;41554;45.366;20.400;2023-04-15T03:19:24;13.13;;;5.90;;
55672;SDS011;41554;45.366;20.400;2023-04-15T03:21:50;12.95;;;6.95;;
55672;SDS011;41554;45.366;20.400;2023-04-15T03:24:17;7.70;;;5.93;;
55672;SDS011;41554;45.366;20.400;2023-04-15T03:26:43;8.40;;;7.00;;
55672;SDS011;41554;45.366;20.400;2023-04-15T03:29:09;13.45;;;6.90;;
55672;SDS011;41554;45.366;20.400;2023-04-15T03:31:35;9.77;;;7.32;;
55672;SDS011;41554;45.366;20.400;2023-04-15T03:34:01;10.07;;;6.95;;
55672;SDS011;41554;45.366;20.400;2023-04-15T03:36:30;8.55;;;6.00;;
55672;SDS011;41554;45.366;20.400;2023-04-15T03:38:57;10.60;;;6.32;;
55672;SDS011;41554;45.366;20.400;2023-04-15T03:41:23;6.82;;;5.97;;
55672;SDS011;41554;45.366;20.400;2023-04-15T03:43:49;8.60;;;7.78;;
55672;SDS011;41554;45.366;20.400;2023-04-15T03:46:18;9.20;;;6.80;;
55672;SDS011;41554;45.366;20.400;2023-04-15T03:48:45;7.55;;;6.78;;
55672;SDS011;41554;45.366;20.400;2023-04-15T03:51:11;9.88;;;8.48;;
55672;SDS011;41554;45.366;20.400;2023-04-15T03:53:37;14.90;;;7.25;;
55672;SDS011;41554;45.366;20.400;2023-04-15T03:56:03;11.02;;;7.65;;
55672;SDS011;41554;45.366;20.400;2023-04-15T03:58:30;12.02;;;7.57;;
55672;SDS011;41554;45.366;20.400;2023-04-15T04:00:56;11.55;;;8.52;;
55672;SDS011;41554;45.366;20.400;2023-04-15T04:03:22;10.45;;;7.82;;
55672;SDS011;41554;45.366;20.400;2023-04-15T04:05:48;12.90;;;7.57;;
55672;SDS011;41554;45.366;20.400;2023-04-15T04:08:14;10.55;;;8.50;;
55672;SDS011;41554;45.366;20.400;2023-04-15T04:10:41;11.98;;;9.30;;
55672;SDS011;41554;45.366;20.400;2023-04-15T04:13:07;13.75;;;8.68;;
55672;SDS011;41554;45.366;20.400;2023-04-15T04:15:33;11.93;;;9.93;;
55672;SDS011;41554;45.366;20.400;2023-04-15T04:17:59;13.70;;;9.93;;
55672;SDS011;41554;45.366;20.400;2023-04-15T04:20:25;18.83;;;8.52;;
55672;SDS011;41554;45.366;20.400;2023-04-15T04:22:51;11.20;;;9.88;;
55672;SDS011;41554;45.366;20.400;2023-04-15T04:25:17;11.90;;;9.15;;
55672;SDS011;41554;45.366;20.400;2023-04-15T04:27:43;12.48;;;9.13;;
55672;SDS011;41554;45.366;20.400;2023-04-15T04:30:10;9.00;;;7.88;;
55672;SDS011;41554;45.366;20.400;2023-04-15T04:32:36;11.77;;;8.52;;
55672;SDS011;41554;45.366;20.400;2023-04-15T04:35:03;13.63;;;9.70;;
55672;SDS011;41554;45.366;20.400;2023-04-15T04:37:29;16.23;;;9.70;;
55672;SDS011;41554;45.366;20.400;2023-04-15T04:39:55;13.75;;;11.15;;
55672;SDS011;41554;45.366;20.400;2023-04-15T04:42:21;17.92;;;12.55;;
55672;SDS011;41554;45.366;20.400;2023-04-15T04:44:47;26.15;;;18.65;;
55672;SDS011;41554;45.366;20.400;2023-04-15T04:47:13;28.38;;;20.95;;
55672;SDS011;41554;45.366;20.400;2023-04-15T04:49:40;19.45;;;13.57;;
55672;SDS011;41554;45.366;20.400;2023-04-15T04:52:06;13.43;;;9.20;;
55672;SDS011;41554;45.366;20.400;2023-04-15T04:54:32;19.55;;;10.07;;
55672;SDS011;41554;45.366;20.400;2023-04-15T04:56:58;14.75;;;11.48;;
55672;SDS011;41554;45.366;20.400;2023-04-15T04:59:24;17.33;;;12.52;;
55672;SDS011;41554;45.366;20.400;2023-04-15T05:01:50;17.55;;;11.35;;
55672;SDS011;41554;45.366;20.400;2023-04-15T05:04:17;17.42;;;12.48;;
55672;SDS011;41554;45.366;20.400;2023-04-15T05:06:43;16.13;;;12.27;;
55672;SDS011;41554;45.366;20.400;2023-04-15T05:09:09;15.45;;;10.20;;
55672;SDS011;41554;45.366;20.400;2023-04-15T05:11:35;12.15;;;9.15;;
55672;SDS011;41554;45.366;20.400;2023-04-15T05:14:01;11.63;;;8.48;;
55672;SDS011;41554;45.366;20.400;2023-04-15T05:16:27;18.80;;;9.25;;
55672;SDS011;41554;45.366;20.400;2023-04-15T05:18:53;11.82;;;8.52;;
55672;SDS011;41554;45.366;20.400;2023-04-15T05:21:19;11.05;;;8.63;;
55672;SDS011;41554;45.366;20.400;2023-04-15T05:23:46;16.10;;;10.98;;
55672;SDS011;41554;45.366;20.400;2023-04-15T05:26:12;12.25;;;8.75;;
55672;SDS011;41554;45.366;20.400;2023-04-15T05:28:38;14.73;;;10.60;;
55672;SDS011;41554;45.366;20.400;2023-04-15T05:31:03;15.38;;;8.60;;
55672;SDS011;41554;45.366;20.400;2023-04-15T05:33:31;11.93;;;9.23;;
55672;SDS011;41554;45.366;20.400;2023-04-15T05:35:56;11.68;;;9.05;;
55672;SDS011;41554;45.366;20.400;2023-04-15T05:38:22;17.85;;;15.00;;
55672;SDS011;41554;45.366;20.400;2023-04-15T05:40:48;32.15;;;20.65;;
55672;SDS011;41554;45.366;20.400;2023-04-15T05:43:13;24.02;;;16.65;;
55672;SDS011;41554;45.366;20.400;2023-04-15T05:45:40;17.00;;;11.70;;
55672;SDS011;41554;45.366;20.400;2023-04-15T05:48:06;29.73;;;23.40;;
55672;SDS011;41554;45.366;20.400;2023-04-15T05:50:32;24.20;;;13.68;;
55672;SDS011;41554;45.366;20.400;2023-04-15T05:52:58;17.05;;;13.50;;
55672;SDS011;41554;45.366;20.400;2023-04-15T05:55:24;19.73;;;11.77;;
55672;SDS011;41554;45.366;20.400;2023-04-15T05:57:51;32.13;;;22.90;;
55672;SDS011;41554;45.366;20.400;2023-04-15T06:00:17;36.88;;;29.30;;
55672;SDS011;41554;45.366;20.400;2023-04-15T06:02:44;39.08;;;31.27;;
55672;SDS011;41554;45.366;20.400;2023-04-15T06:05:10;54.67;;;25.45;;
55672;SDS011;41554;45.366;20.400;2023-04-15T06:07:36;38.22;;;30.85;;
55672;SDS011;41554;45.366;20.400;2023-04-15T06:10:03;22.83;;;16.15;;
55672;SDS011;41554;45.366;20.400;2023-04-15T06:12:29;16.00;;;12.40;;
55672;SDS011;41554;45.366;20.400;2023-04-15T06:14:56;13.40;;;9.27;;
55672;SDS011;41554;45.366;20.400;2023-04-15T06:17:22;24.65;;;8.50;;
55672;SDS011;41554;45.366;20.400;2023-04-15T06:19:48;12.82;;;9.00;;
55672;SDS011;41554;45.366;20.400;2023-04-15T06:22:19;18.33;;;10.15;;
55672;SDS011;41554;45.366;20.400;2023-04-15T06:24:45;14.68;;;10.25;;
55672;SDS011;41554;45.366;20.400;2023-04-15T06:27:12;10.18;;;8.93;;
55672;SDS011;41554;45.366;20.400;2023-04-15T06:29:38;13.68;;;9.02;;
55672;SDS011;41554;45.366;20.400;2023-04-15T06:32:04;12.75;;;8.80;;
55672;SDS011;41554;45.366;20.400;2023-04-15T06:34:30;10.60;;;8.35;;
55672;SDS011;41554;45.366;20.400;2023-04-15T06:36:56;13.77;;;8.60;;
55672;SDS011;41554;45.366;20.400;2023-04-15T06:39:22;11.52;;;7.75;;
55672;SDS011;41554;45.366;20.400;2023-04-15T06:41:48;9.57;;;6.18;;
55672;SDS011;41554;45.366;20.400;2023-04-15T06:44:15;12.10;;;7.20;;
55672;SDS011;41554;45.366;20.400;2023-04-15T06:46:41;8.98;;;5.95;;
55672;SDS011;41554;45.366;20.400;2023-04-15T06:49:07;15.70;;;8.52;;
55672;SDS011;41554;45.366;20.400;2023-04-15T06:51:34;12.27;;;6.45;;
55672;SDS011;41554;45.366;20.400;2023-04-15T06:54:00;11.23;;;7.50;;
55672;SDS011;41554;45.366;20.400;2023-04-15T06:56:29;8.90;;;6.20;;
55672;SDS011;41554;45.366;20.400;2023-04-15T06:58:55;12.40;;;5.95;;
55672;SDS011;41554;45.366;20.400;2023-04-15T07:01:21;8.40;;;5.50;;
55672;SDS011;41554;45.366;20.400;2023-04-15T07:03:48;6.47;;;4.78;;
55672;SDS011;41554;45.366;20.400;2023-04-15T07:06:14;6.70;;;5.20;;
55672;SDS011;41554;45.366;20.400;2023-04-15T07:08:40;5.38;;;4.25;;
55672;SDS011;41554;45.366;20.400;2023-04-15T07:11:07;6.03;;;4.30;;
55672;SDS011;41554;45.366;20.400;2023-04-15T07:13:33;4.35;;;3.40;;
55672;SDS011;41554;45.366;20.400;2023-04-15T07:15:59;5.05;;;3.70;;
55672;SDS011;41554;45.366;20.400;2023-04-15T07:18:25;7.53;;;3.92;;
55672;SDS011;41554;45.366;20.400;2023-04-15T07:20:51;9.73;;;4.20;;
55672;SDS011;41554;45.366;20.400;2023-04-15T07:23:18;13.35;;;4.80;;
55672;SDS011;41554;45.366;20.400;2023-04-15T07:25:44;5.75;;;4.22;;
55672;SDS011;41554;45.366;20.400;2023-04-15T07:28:10;4.78;;;3.00;;
55672;SDS011;41554;45.366;20.400;2023-04-15T07:30:36;5.97;;;4.63;;
55672;SDS011;41554;45.366;20.400;2023-04-15T07:33:02;5.35;;;3.85;;
55672;SDS011;41554;45.366;20.400;2023-04-15T07:35:28;15.00;;;4.53;;
55672;SDS011;41554;45.366;20.400;2023-04-15T07:37:54;6.35;;;3.65;;
55672;SDS011;41554;45.366;20.400;2023-04-15T07:40:20;5.13;;;3.30;;
55672;SDS011;41554;45.366;20.400;2023-04-15T07:42:47;3.95;;;2.83;;
55672;SDS011;41554;45.366;20.400;2023-04-15T07:45:13;6.32;;;4.25;;
55672;SDS011;41554;45.366;20.400;2023-04-15T07:47:40;5.50;;;3.72;;
55672;SDS011;41554;45.366;20.400;2023-04-15T07:50:07;4.07;;;3.15;;
55672;SDS011;41554;45.366;20.400;2023-04-15T07:52:35;7.22;;;3.60;;
55672;SDS011;41554;45.366;20.400;2023-04-15T07:55:06;4.38;;;3.00;;
55672;SDS011;41554;45.366;20.400;2023-04-15T07:57:36;3.65;;;2.47;;
55672;SDS011;41554;45.366;20.400;2023-04-15T08:00:02;6.78;;;3.15;;
55672;SDS011;41554;45.366;20.400;2023-04-15T08:02:29;4.25;;;2.08;;
55672;SDS011;41554;45.366;20.400;2023-04-15T08:04:56;4.28;;;2.08;;
55672;SDS011;41554;45.366;20.400;2023-04-15T08:07:22;2.90;;;2.53;;
55672;SDS011;41554;45.366;20.400;2023-04-15T08:09:49;3.40;;;2.45;;
55672;SDS011;41554;45.366;20.400;2023-04-15T08:12:15;5.93;;;2.63;;
55672;SDS011;41554;45.366;20.400;2023-04-15T08:14:41;4.43;;;2.50;;
55672;SDS011;41554;45.366;20.400;2023-04-15T08:17:07;4.47;;;3.10;;
55672;SDS011;41554;45.366;20.400;2023-04-15T08:19:33;7.57;;;2.00;;
55672;SDS011;41554;45.366;20.400;2023-04-15T08:22:00;2.83;;;2.17;;
55672;SDS011;41554;45.366;20.400;2023-04-15T08:24:26;3.78;;;2.25;;
55672;SDS011;41554;45.366;20.400;2023-04-15T08:26:52;5.40;;;2.97;;
55672;SDS011;41554;45.366;20.400;2023-04-15T08:29:18;4.53;;;3.20;;
55672;SDS011;41554;45.366;20.400;2023-04-15T08:31:44;3.55;;;2.80;;
55672;SDS011;41554;45.366;20.400;2023-04-15T08:34:11;2.88;;;2.20;;
55672;SDS011;41554;45.366;20.400;2023-04-15T08:36:37;2.65;;;1.55;;
55672;SDS011;41554;45.366;20.400;2023-04-15T08:39:03;4.70;;;2.25;;
55672;SDS011;41554;45.366;20.400;2023-04-15T08:41:40;5.32;;;2.15;;
55672;SDS011;41554;45.366;20.400;2023-04-15T08:44:11;2.70;;;1.80;;
55672;SDS011;41554;45.366;20.400;2023-04-15T08:46:38;0.93;;;0.75;;
55672;SDS011;41554;45.366;20.400;2023-04-15T08:49:07;1.17;;;0.82;;
55672;SDS011;41554;45.366;20.400;2023-04-15T08:51:34;3.50;;;1.75;;
55672;SDS011;41554;45.366;20.400;2023-04-15T08:54:01;2.25;;;1.67;;
55672;SDS011;41554;45.366;20.400;2023-04-15T08:56:30;2.22;;;1.88;;
55672;SDS011;41554;45.366;20.400;2023-04-15T08:58:57;6.65;;;1.83;;
55672;SDS011;41554;45.366;20.400;2023-04-15T09:01:24;2.35;;;1.83;;
55672;SDS011;41554;45.366;20.400;2023-04-15T09:03:50;2.05;;;1.42;;
55672;SDS011;41554;45.366;20.400;2023-04-15T09:06:19;2.83;;;1.65;;
55672;SDS011;41554;45.366;20.400;2023-04-15T09:08:45;1.30;;;1.20;;
55672;SDS011;41554;45.366;20.400;2023-04-15T09:11:11;1.45;;;1.05;;
55672;SDS011;41554;45.366;20.400;2023-04-15T09:13:37;1.55;;;1.27;;
55672;SDS011;41554;45.366;20.400;2023-04-15T09:16:06;5.97;;;2.00;;
55672;SDS011;41554;45.366;20.400;2023-04-15T09:18:33;2.25;;;1.38;;
55672;SDS011;41554;45.366;20.400;2023-04-15T09:21:04;1.13;;;1.02;;
55672;SDS011;41554;45.366;20.400;2023-04-15T09:23:31;6.20;;;1.90;;
55672;SDS011;41554;45.366;20.400;2023-04-15T09:25:58;1.92;;;1.50;;
55672;SDS011;41554;45.366;20.400;2023-04-15T09:28:24;1.52;;;1.42;;
55672;SDS011;41554;45.366;20.400;2023-04-15T09:31:00;3.92;;;1.92;;
55672;SDS011;41554;45.366;20.400;2023-04-15T09:33:27;7.18;;;2.35;;
55672;SDS011;41554;45.366;20.400;2023-04-15T09:38:23;2.80;;;1.77;;
55672;SDS011;41554;45.366;20.400;2023-04-15T09:40:49;5.53;;;2.13;;
55672;SDS011;41554;45.366;20.400;2023-04-15T09:43:15;3.60;;;1.67;;
55672;SDS011;41554;45.366;20.400;2023-04-15T09:45:48;1.55;;;1.45;;
55672;SDS011;41554;45.366;20.400;2023-04-15T09:48:21;2.78;;;1.42;;
55672;SDS011;41554;45.366;20.400;2023-04-15T09:50:49;9.23;;;2.45;;
55672;SDS011;41554;45.366;20.400;2023-04-15T09:53:21;4.20;;;2.03;;
55672;SDS011;41554;45.366;20.400;2023-04-15T09:58:20;1.92;;;1.40;;
55672;SDS011;41554;45.366;20.400;2023-04-15T10:00:48;2.85;;;1.20;;
55672;SDS011;41554;45.366;20.400;2023-04-15T10:03:24;14.77;;;2.63;;
55672;SDS011;41554;45.366;20.400;2023-04-15T10:05:54;4.28;;;2.60;;
55672;SDS011;41554;45.366;20.400;2023-04-15T10:08:24;1.73;;;1.38;;
55672;SDS011;41554;45.366;20.400;2023-04-15T10:10:50;2.08;;;1.88;;
55672;SDS011;41554;45.366;20.400;2023-04-15T10:13:17;1.63;;;1.35;;
55672;SDS011;41554;45.366;20.400;2023-04-15T10:15:44;4.63;;;1.95;;
55672;SDS011;41554;45.366;20.400;2023-04-15T10:18:14;2.38;;;1.42;;
55672;SDS011;41554;45.366;20.400;2023-04-15T10:20:43;0.30;;;0.30;;
55672;SDS011;41554;45.366;20.400;2023-04-15T10:23:11;4.00;;;1.80;;
55672;SDS011;41554;45.366;20.400;2023-04-15T10:25:37;1.55;;;1.15;;
55672;SDS011;41554;45.366;20.400;2023-04-15T10:28:03;1.27;;;1.17;;
55672;SDS011;41554;45.366;20.400;2023-04-15T10:30:31;2.05;;;1.80;;
55672;SDS011;41554;45.366;20.400;2023-04-15T10:32:58;0.82;;;0.73;;
55672;SDS011;41554;45.366;20.400;2023-04-15T10:35:25;1.75;;;1.40;;
55672;SDS011;41554;45.366;20.400;2023-04-15T10:37:51;1.98;;;1.58;;
55672;SDS011;41554;45.366;20.400;2023-04-15T10:40:27;5.90;;;1.60;;
55672;SDS011;41554;45.366;20.400;2023-04-15T10:42:56;4.50;;;1.20;;
55672;SDS011;41554;45.366;20.400;2023-04-15T10:45:26;1.85;;;1.10;;
55672;SDS011;41554;45.366;20.400;2023-04-15T10:50:19;1.15;;;1.05;;
55672;SDS011;41554;45.366;20.400;2023-04-15T10:52:49;1.77;;;1.33;;
55672;SDS011;41554;45.366;20.400;2023-04-15T10:55:20;2.70;;;1.83;;
55672;SDS011;41554;45.366;20.400;2023-04-15T10:57:48;3.35;;;1.55;;
55672;SDS011;41554;45.366;20.400;2023-04-15T11:00:17;0.40;;;0.40;;
55672;SDS011;41554;45.366;20.400;2023-04-15T11:02:44;2.15;;;1.33;;
55672;SDS011;41554;45.366;20.400;2023-04-15T11:05:12;1.45;;;1.10;;
55672;SDS011;41554;45.366;20.400;2023-04-15T11:07:39;1.45;;;1.13;;
55672;SDS011;41554;45.366;20.400;2023-04-15T11:12:38;4.63;;;1.58;;
55672;SDS011;41554;45.366;20.400;2023-04-15T11:17:50;1.13;;;1.02;;
55672;SDS011;41554;45.366;20.400;2023-04-15T11:20:16;1.23;;;1.13;;
55672;SDS011;41554;45.366;20.400;2023-04-15T11:22:46;2.13;;;1.27;;
55672;SDS011;41554;45.366;20.400;2023-04-15T11:25:25;3.15;;;1.67;;
55672;SDS011;41554;45.366;20.400;2023-04-15T11:27:51;1.60;;;1.20;;
55672;SDS011;41554;45.366;20.400;2023-04-15T11:30:22;2.30;;;1.23;;
55672;SDS011;41554;45.366;20.400;2023-04-15T11:32:48;0.80;;;0.80;;
55672;SDS011;41554;45.366;20.400;2023-04-15T11:35:15;2.38;;;1.25;;
55672;SDS011;41554;45.366;20.400;2023-04-15T11:37:42;1.48;;;1.08;;
55672;SDS011;41554;45.366;20.400;2023-04-15T11:40:09;2.60;;;0.82;;
55672;SDS011;41554;45.366;20.400;2023-04-15T11:42:35;1.92;;;1.17;;
55672;SDS011;41554;45.366;20.400;2023-04-15T11:45:14;1.70;;;1.48;;
55672;SDS011;41554;45.366;20.400;2023-04-15T11:47:40;3.03;;;1.08;;
55672;SDS011;41554;45.366;20.400;2023-04-15T11:52:40;0.55;;;0.55;;
55672;SDS011;41554;45.366;20.400;2023-04-15T11:55:06;1.75;;;1.35;;
55672;SDS011;41554;45.366;20.400;2023-04-15T11:57:33;2.58;;;1.40;;
55672;SDS011;41554;45.366;20.400;2023-04-15T12:00:00;2.10;;;1.08;;
55672;SDS011;41554;45.366;20.400;2023-04-15T12:02:35;1.60;;;0.85;;
55672;SDS011;41554;45.366;20.400;2023-04-15T12:05:02;1.05;;;1.00;;
55672;SDS011;41554;45.366;20.400;2023-04-15T12:07:29;2.80;;;1.63;;
55672;SDS011;41554;45.366;20.400;2023-04-15T12:09:55;1.90;;;1.75;;
55672;SDS011;41554;45.366;20.400;2023-04-15T12:12:25;2.05;;;1.50;;
55672;SDS011;41554;45.366;20.400;2023-04-15T12:14:52;1.73;;;1.05;;
55672;SDS011;41554;45.366;20.400;2023-04-15T12:17:18;0.82;;;0.80;;
55672;SDS011;41554;45.366;20.400;2023-04-15T12:19:45;2.20;;;1.10;;
55672;SDS011;41554;45.366;20.400;2023-04-15T12:22:13;0.90;;;0.68;;
55672;SDS011;41554;45.366;20.400;2023-04-15T12:24:40;1.13;;;0.93;;
55672;SDS011;41554;45.366;20.400;2023-04-15T12:27:11;1.77;;;1.50;;
55672;SDS011;41554;45.366;20.400;2023-04-15T12:29:38;1.15;;;0.60;;
55672;SDS011;41554;45.366;20.400;2023-04-15T12:34:34;8.82;;;1.45;;
55672;SDS011;41554;45.366;20.400;2023-04-15T12:37:03;1.40;;;1.13;;
55672;SDS011;41554;45.366;20.400;2023-04-15T12:39:30;2.65;;;1.17;;
55672;SDS011;41554;45.366;20.400;2023-04-15T12:41:57;1.65;;;1.25;;
55672;SDS011;41554;45.366;20.400;2023-04-15T12:44:24;7.90;;;1.73;;
55672;SDS011;41554;45.366;20.400;2023-04-15T12:46:50;1.77;;;1.27;;
55672;SDS011;41554;45.366;20.400;2023-04-15T12:49:19;1.67;;;1.10;;
55672;SDS011;41554;45.366;20.400;2023-04-15T12:51:49;2.08;;;1.15;;
55672;SDS011;41554;45.366;20.400;2023-04-15T12:54:16;1.15;;;0.85;;
55672;SDS011;41554;45.366;20.400;2023-04-15T12:56:42;0.63;;;0.63;;
55672;SDS011;41554;45.366;20.400;2023-04-15T12:59:09;3.55;;;1.20;;
55672;SDS011;41554;45.366;20.400;2023-04-15T13:01:35;2.88;;;1.58;;
55672;SDS011;41554;45.366;20.400;2023-04-15T13:04:01;1.63;;;1.13;;
55672;SDS011;41554;45.366;20.400;2023-04-15T13:06:27;1.83;;;1.23;;
55672;SDS011;41554;45.366;20.400;2023-04-15T13:08:53;5.38;;;1.70;;
55672;SDS011;41554;45.366;20.400;2023-04-15T13:11:20;2.00;;;1.25;;
55672;SDS011;41554;45.366;20.400;2023-04-15T13:13:47;1.65;;;1.35;;
55672;SDS011;41554;45.366;20.400;2023-04-15T13:16:13;1.08;;;0.90;;
55672;SDS011;41554;45.366;20.400;2023-04-15T13:18:39;5.60;;;1.50;;
55672;SDS011;41554;45.366;20.400;2023-04-15T13:21:05;1.00;;;0.90;;
55672;SDS011;41554;45.366;20.400;2023-04-15T13:23:32;2.80;;;1.75;;
55672;SDS011;41554;45.366;20.400;2023-04-15T13:25:58;2.15;;;1.30;;
55672;SDS011;41554;45.366;20.400;2023-04-15T13:28:24;4.35;;;3.38;;
55672;SDS011;41554;45.366;20.400;2023-04-15T13:30:51;1.20;;;1.10;;
55672;SDS011;41554;45.366;20.400;2023-04-15T13:33:17;2.05;;;1.45;;
55672;SDS011;41554;45.366;20.400;2023-04-15T13:35:43;2.88;;;1.98;;
55672;SDS011;41554;45.366;20.400;2023-04-15T13:38:09;2.72;;;2.13;;
55672;SDS011;41554;45.366;20.400;2023-04-15T13:40:35;2.67;;;1.55;;
55672;SDS011;41554;45.366;20.400;2023-04-15T13:43:01;2.90;;;1.25;;
55672;SDS011;41554;45.366;20.400;2023-04-15T13:45:28;2.38;;;1.52;;
55672;SDS011;41554;45.366;20.400;2023-04-15T13:47:55;1.20;;;0.93;;
55672;SDS011;41554;45.366;20.400;2023-04-15T13:50:21;1.25;;;0.57;;
55672;SDS011;41554;45.366;20.400;2023-04-15T13:52:50;2.10;;;1.55;;
55672;SDS011;41554;45.366;20.400;2023-04-15T13:55:16;3.03;;;1.25;;
55672;SDS011;41554;45.366;20.400;2023-04-15T13:57:44;1.35;;;0.95;;
55672;SDS011;41554;45.366;20.400;2023-04-15T14:00:11;1.40;;;1.30;;
55672;SDS011;41554;45.366;20.400;2023-04-15T14:02:37;0.50;;;0.50;;
55672;SDS011;41554;45.366;20.400;2023-04-15T14:05:03;4.07;;;1.00;;
55672;SDS011;41554;45.366;20.400;2023-04-15T14:07:29;3.83;;;1.13;;
55672;SDS011;41554;45.366;20.400;2023-04-15T14:09:55;4.93;;;2.55;;
55672;SDS011;41554;45.366;20.400;2023-04-15T14:12:22;6.40;;;1.98;;
55672;SDS011;41554;45.366;20.400;2023-04-15T14:14:48;3.92;;;1.27;;
55672;SDS011;41554;45.366;20.400;2023-04-15T14:17:14;8.93;;;2.63;;
55672;SDS011;41554;45.366;20.400;2023-04-15T14:19:40;1.60;;;1.40;;
55672;SDS011;41554;45.366;20.400;2023-04-15T14:22:06;6.07;;;2.58;;
55672;SDS011;41554;45.366;20.400;2023-04-15T14:24:32;1.25;;;0.95;;
55672;SDS011;41554;45.366;20.400;2023-04-15T14:26:58;1.08;;;0.80;;
55672;SDS011;41554;45.366;20.400;2023-04-15T14:29:26;6.63;;;1.80;;
55672;SDS011;41554;45.366;20.400;2023-04-15T14:31:52;0.73;;;0.68;;
55672;SDS011;41554;45.366;20.400;2023-04-15T14:34:18;1.60;;;0.70;;
55672;SDS011;41554;45.366;20.400;2023-04-15T14:36:46;9.65;;;1.80;;
55672;SDS011;41554;45.366;20.400;2023-04-15T14:39:12;2.28;;;1.75;;
55672;SDS011;41554;45.366;20.400;2023-04-15T14:41:38;2.88;;;1.63;;
55672;SDS011;41554;45.366;20.400;2023-04-15T14:44:05;5.90;;;2.72;;